sensor_id;sensor_type;location;lat;lon;timestamp;P1;durP1;ratioP1;P2;durP2;ratioP2
19105;SDS011;9685;54.338;18.672;2023-08-20T00:02:02;47.10;;;39.30;;
19105;SDS011;9685;54.338;18.672;2023-08-20T00:04:34;42.07;;;37.37;;
19105;SDS011;9685;54.338;18.672;2023-08-20T00:07:03;49.67;;;39.77;;
19105;SDS011;9685;54.338;18.672;2023-08-20T00:09:30;39.33;;;35.03;;
19105;SDS011;9685;54.338;18.672;2023-08-20T00:11:58;42.57;;;36.30;;
19105;SDS011;9685;54.338;18.672;2023-08-20T00:17:22;41.53;;;34.50;;
19105;SDS011;9685;54.338;18.672;2023-08-20T00:19:52;42.23;;;36.50;;
19105;SDS011;9685;54.338;18.672;2023-08-20T00:22:21;41.67;;;36.90;;
19105;SDS011;9685;54.338;18.672;2023-08-20T00:24:49;43.77;;;36.00;;
19105;SDS011;9685;54.338;18.672;2023-08-20T00:27:17;42.83;;;36.30;;
19105;SDS011;9685;54.338;18.672;2023-08-20T00:29:44;43.00;;;36.67;;
19105;SDS011;9685;54.338;18.672;2023-08-20T00:32:14;39.37;;;35.07;;
19105;SDS011;9685;54.338;18.672;2023-08-20T00:34:41;42.27;;;36.03;;
19105;SDS011;9685;54.338;18.672;2023-08-20T00:37:08;38.83;;;34.60;;
19105;SDS011;9685;54.338;18.672;2023-08-20T00:39:34;40.67;;;34.97;;
19105;SDS011;9685;54.338;18.672;2023-08-20T00:42:01;39.50;;;35.20;;
19105;SDS011;9685;54.338;18.672;2023-08-20T00:44:29;39.20;;;34.73;;
19105;SDS011;9685;54.338;18.672;2023-08-20T00:46:56;39.70;;;34.43;;
19105;SDS011;9685;54.338;18.672;2023-08-20T00:49:26;37.97;;;33.87;;
19105;SDS011;9685;54.338;18.672;2023-08-20T00:51:53;40.23;;;33.83;;
19105;SDS011;9685;54.338;18.672;2023-08-20T00:54:20;41.40;;;34.03;;
19105;SDS011;9685;54.338;18.672;2023-08-20T00:56:48;41.53;;;34.93;;
19105;SDS011;9685;54.338;18.672;2023-08-20T00:59:16;42.13;;;33.23;;
19105;SDS011;9685;54.338;18.672;2023-08-20T01:01:43;38.20;;;32.60;;
19105;SDS011;9685;54.338;18.672;2023-08-20T01:04:10;36.20;;;31.57;;
19105;SDS011;9685;54.338;18.672;2023-08-20T01:06:42;35.73;;;30.30;;
19105;SDS011;9685;54.338;18.672;2023-08-20T01:09:19;36.67;;;31.90;;
19105;SDS011;9685;54.338;18.672;2023-08-20T01:11:55;38.07;;;31.93;;
19105;SDS011;9685;54.338;18.672;2023-08-20T01:14:25;32.33;;;28.87;;
19105;SDS011;9685;54.338;18.672;2023-08-20T01:16:52;34.23;;;30.67;;
19105;SDS011;9685;54.338;18.672;2023-08-20T01:19:19;36.63;;;32.70;;
19105;SDS011;9685;54.338;18.672;2023-08-20T01:21:52;38.00;;;33.90;;
19105;SDS011;9685;54.338;18.672;2023-08-20T01:24:44;45.97;;;37.43;;
19105;SDS011;9685;54.338;18.672;2023-08-20T01:27:20;36.97;;;32.47;;
19105;SDS011;9685;54.338;18.672;2023-08-20T01:29:56;40.27;;;33.80;;
19105;SDS011;9685;54.338;18.672;2023-08-20T01:32:24;47.27;;;38.20;;
19105;SDS011;9685;54.338;18.672;2023-08-20T01:34:52;42.83;;;37.37;;
19105;SDS011;9685;54.338;18.672;2023-08-20T01:37:19;44.73;;;37.43;;
19105;SDS011;9685;54.338;18.672;2023-08-20T01:39:47;37.97;;;33.87;;
19105;SDS011;9685;54.338;18.672;2023-08-20T01:42:14;37.80;;;32.70;;
19105;SDS011;9685;54.338;18.672;2023-08-20T01:44:41;36.60;;;32.63;;
19105;SDS011;9685;54.338;18.672;2023-08-20T01:47:09;38.73;;;32.37;;
19105;SDS011;9685;54.338;18.672;2023-08-20T01:49:36;40.97;;;33.93;;
19105;SDS011;9685;54.338;18.672;2023-08-20T01:52:03;48.83;;;39.43;;
19105;SDS011;9685;54.338;18.672;2023-08-20T01:54:30;57.07;;;43.70;;
19105;SDS011;9685;54.338;18.672;2023-08-20T01:56:57;51.37;;;40.73;;
19105;SDS011;9685;54.338;18.672;2023-08-20T01:59:24;51.33;;;39.73;;
19105;SDS011;9685;54.338;18.672;2023-08-20T02:01:51;54.00;;;39.43;;
19105;SDS011;9685;54.338;18.672;2023-08-20T02:04:19;52.77;;;40.63;;
19105;SDS011;9685;54.338;18.672;2023-08-20T02:06:46;53.67;;;40.37;;
19105;SDS011;9685;54.338;18.672;2023-08-20T02:09:13;54.77;;;42.00;;
19105;SDS011;9685;54.338;18.672;2023-08-20T02:11:41;56.23;;;41.33;;
19105;SDS011;9685;54.338;18.672;2023-08-20T02:14:08;51.23;;;39.30;;
19105;SDS011;9685;54.338;18.672;2023-08-20T02:16:35;59.70;;;43.50;;
19105;SDS011;9685;54.338;18.672;2023-08-20T02:19:02;47.50;;;37.53;;
19105;SDS011;9685;54.338;18.672;2023-08-20T02:21:33;45.90;;;35.30;;
19105;SDS011;9685;54.338;18.672;2023-08-20T02:24:00;42.83;;;34.17;;
19105;SDS011;9685;54.338;18.672;2023-08-20T02:26:27;44.10;;;35.63;;
19105;SDS011;9685;54.338;18.672;2023-08-20T02:28:54;43.00;;;34.87;;
19105;SDS011;9685;54.338;18.672;2023-08-20T02:31:21;42.90;;;33.90;;
19105;SDS011;9685;54.338;18.672;2023-08-20T02:33:48;44.83;;;36.23;;
19105;SDS011;9685;54.338;18.672;2023-08-20T02:36:15;50.43;;;38.30;;
19105;SDS011;9685;54.338;18.672;2023-08-20T02:38:44;47.83;;;37.17;;
19105;SDS011;9685;54.338;18.672;2023-08-20T02:41:11;42.50;;;35.87;;
19105;SDS011;9685;54.338;18.672;2023-08-20T02:43:38;47.37;;;38.47;;
19105;SDS011;9685;54.338;18.672;2023-08-20T02:46:05;42.30;;;35.53;;
19105;SDS011;9685;54.338;18.672;2023-08-20T02:48:32;38.70;;;34.03;;
19105;SDS011;9685;54.338;18.672;2023-08-20T02:50:59;42.53;;;35.37;;
19105;SDS011;9685;54.338;18.672;2023-08-20T02:53:27;46.27;;;37.57;;
19105;SDS011;9685;54.338;18.672;2023-08-20T02:55:56;52.43;;;41.80;;
19105;SDS011;9685;54.338;18.672;2023-08-20T02:58:23;47.60;;;38.93;;
19105;SDS011;9685;54.338;18.672;2023-08-20T03:00:50;48.10;;;36.53;;
19105;SDS011;9685;54.338;18.672;2023-08-20T03:03:18;48.67;;;38.30;;
19105;SDS011;9685;54.338;18.672;2023-08-20T03:05:45;45.33;;;37.20;;
19105;SDS011;9685;54.338;18.672;2023-08-20T03:08:12;41.27;;;34.80;;
19105;SDS011;9685;54.338;18.672;2023-08-20T03:10:39;40.00;;;33.03;;
19105;SDS011;9685;54.338;18.672;2023-08-20T03:13:07;42.10;;;33.27;;
19105;SDS011;9685;54.338;18.672;2023-08-20T03:15:34;37.13;;;30.80;;
19105;SDS011;9685;54.338;18.672;2023-08-20T03:18:01;44.47;;;32.47;;
19105;SDS011;9685;54.338;18.672;2023-08-20T03:20:28;40.57;;;33.27;;
19105;SDS011;9685;54.338;18.672;2023-08-20T03:22:56;40.77;;;32.03;;
19105;SDS011;9685;54.338;18.672;2023-08-20T03:25:23;35.83;;;29.30;;
19105;SDS011;9685;54.338;18.672;2023-08-20T03:27:51;41.00;;;33.43;;
19105;SDS011;9685;54.338;18.672;2023-08-20T03:30:20;37.97;;;30.97;;
19105;SDS011;9685;54.338;18.672;2023-08-20T03:32:47;34.57;;;29.57;;
19105;SDS011;9685;54.338;18.672;2023-08-20T03:35:14;36.50;;;29.57;;
19105;SDS011;9685;54.338;18.672;2023-08-20T03:37:41;35.90;;;31.13;;
19105;SDS011;9685;54.338;18.672;2023-08-20T03:40:08;43.03;;;36.10;;
19105;SDS011;9685;54.338;18.672;2023-08-20T03:42:35;47.60;;;37.20;;
19105;SDS011;9685;54.338;18.672;2023-08-20T03:45:03;38.47;;;33.00;;
19105;SDS011;9685;54.338;18.672;2023-08-20T03:47:31;38.20;;;29.30;;
19105;SDS011;9685;54.338;18.672;2023-08-20T03:49:58;35.10;;;28.00;;
19105;SDS011;9685;54.338;18.672;2023-08-20T03:52:25;37.37;;;29.70;;
19105;SDS011;9685;54.338;18.672;2023-08-20T03:54:52;36.30;;;30.40;;
19105;SDS011;9685;54.338;18.672;2023-08-20T03:57:19;36.70;;;29.93;;
19105;SDS011;9685;54.338;18.672;2023-08-20T03:59:46;31.27;;;27.70;;
19105;SDS011;9685;54.338;18.672;2023-08-20T04:02:13;44.10;;;37.17;;
19105;SDS011;9685;54.338;18.672;2023-08-20T04:04:41;42.97;;;35.10;;
19105;SDS011;9685;54.338;18.672;2023-08-20T04:07:08;38.20;;;32.70;;
19105;SDS011;9685;54.338;18.672;2023-08-20T04:09:35;42.50;;;34.70;;
19105;SDS011;9685;54.338;18.672;2023-08-20T04:12:03;34.10;;;29.90;;
19105;SDS011;9685;54.338;18.672;2023-08-20T04:14:31;38.27;;;31.30;;
19105;SDS011;9685;54.338;18.672;2023-08-20T04:16:58;36.97;;;31.40;;
19105;SDS011;9685;54.338;18.672;2023-08-20T04:19:25;32.43;;;28.20;;
19105;SDS011;9685;54.338;18.672;2023-08-20T04:21:53;32.27;;;28.17;;
19105;SDS011;9685;54.338;18.672;2023-08-20T04:24:20;35.13;;;29.40;;
19105;SDS011;9685;54.338;18.672;2023-08-20T04:26:47;39.63;;;30.70;;
19105;SDS011;9685;54.338;18.672;2023-08-20T04:29:14;33.87;;;28.37;;
19105;SDS011;9685;54.338;18.672;2023-08-20T04:31:41;38.17;;;30.63;;
19105;SDS011;9685;54.338;18.672;2023-08-20T04:34:08;44.73;;;32.30;;
19105;SDS011;9685;54.338;18.672;2023-08-20T04:36:35;48.97;;;35.33;;
19105;SDS011;9685;54.338;18.672;2023-08-20T04:39:03;42.10;;;34.53;;
19105;SDS011;9685;54.338;18.672;2023-08-20T04:41:30;41.77;;;35.43;;
19105;SDS011;9685;54.338;18.672;2023-08-20T04:43:57;34.57;;;30.90;;
19105;SDS011;9685;54.338;18.672;2023-08-20T04:46:24;39.70;;;31.43;;
19105;SDS011;9685;54.338;18.672;2023-08-20T04:48:51;36.83;;;32.87;;
19105;SDS011;9685;54.338;18.672;2023-08-20T04:51:18;37.10;;;33.10;;
19105;SDS011;9685;54.338;18.672;2023-08-20T04:53:45;40.23;;;35.60;;
19105;SDS011;9685;54.338;18.672;2023-08-20T04:56:13;37.57;;;33.47;;
19105;SDS011;9685;54.338;18.672;2023-08-20T04:58:40;37.07;;;33.10;;
19105;SDS011;9685;54.338;18.672;2023-08-20T05:01:07;39.27;;;33.13;;
19105;SDS011;9685;54.338;18.672;2023-08-20T05:03:34;37.00;;;31.93;;
19105;SDS011;9685;54.338;18.672;2023-08-20T05:06:01;38.47;;;32.37;;
19105;SDS011;9685;54.338;18.672;2023-08-20T05:08:29;36.83;;;32.13;;
19105;SDS011;9685;54.338;18.672;2023-08-20T05:10:56;37.20;;;32.53;;
19105;SDS011;9685;54.338;18.672;2023-08-20T05:13:24;34.93;;;31.33;;
19105;SDS011;9685;54.338;18.672;2023-08-20T05:15:51;33.73;;;29.87;;
19105;SDS011;9685;54.338;18.672;2023-08-20T05:18:18;33.13;;;29.63;;
19105;SDS011;9685;54.338;18.672;2023-08-20T05:20:45;34.87;;;31.03;;
19105;SDS011;9685;54.338;18.672;2023-08-20T05:23:12;33.87;;;30.07;;
19105;SDS011;9685;54.338;18.672;2023-08-20T05:25:39;37.37;;;32.90;;
19105;SDS011;9685;54.338;18.672;2023-08-20T05:28:06;47.80;;;40.20;;
19105;SDS011;9685;54.338;18.672;2023-08-20T05:30:34;61.37;;;41.83;;
19105;SDS011;9685;54.338;18.672;2023-08-20T05:33:01;65.57;;;37.20;;
19105;SDS011;9685;54.338;18.672;2023-08-20T05:35:29;72.27;;;36.80;;
19105;SDS011;9685;54.338;18.672;2023-08-20T05:37:56;52.87;;;35.13;;
19105;SDS011;9685;54.338;18.672;2023-08-20T05:40:23;61.13;;;34.33;;
19105;SDS011;9685;54.338;18.672;2023-08-20T05:42:50;39.60;;;31.00;;
19105;SDS011;9685;54.338;18.672;2023-08-20T05:45:16;38.77;;;29.63;;
19105;SDS011;9685;54.338;18.672;2023-08-20T05:47:45;37.03;;;29.25;;
19105;SDS011;9685;54.338;18.672;2023-08-20T05:50:12;32.55;;;26.58;;
19105;SDS011;9685;54.338;18.672;2023-08-20T05:52:39;32.80;;;27.20;;
19105;SDS011;9685;54.338;18.672;2023-08-20T05:55:06;28.90;;;25.88;;
19105;SDS011;9685;54.338;18.672;2023-08-20T05:57:34;32.55;;;26.75;;
19105;SDS011;9685;54.338;18.672;2023-08-20T06:00:02;33.10;;;26.70;;
19105;SDS011;9685;54.338;18.672;2023-08-20T06:02:30;33.80;;;27.40;;
19105;SDS011;9685;54.338;18.672;2023-08-20T06:04:58;34.33;;;27.30;;
19105;SDS011;9685;54.338;18.672;2023-08-20T06:07:25;31.40;;;27.00;;
19105;SDS011;9685;54.338;18.672;2023-08-20T06:09:52;36.60;;;28.30;;
19105;SDS011;9685;54.338;18.672;2023-08-20T06:12:19;31.25;;;27.75;;
19105;SDS011;9685;54.338;18.672;2023-08-20T06:14:46;29.10;;;26.02;;
19105;SDS011;9685;54.338;18.672;2023-08-20T06:17:13;34.67;;;26.52;;
19105;SDS011;9685;54.338;18.672;2023-08-20T06:19:40;51.35;;;33.65;;
19105;SDS011;9685;54.338;18.672;2023-08-20T06:22:09;48.63;;;33.38;;
19105;SDS011;9685;54.338;18.672;2023-08-20T06:24:36;40.03;;;29.05;;
19105;SDS011;9685;54.338;18.672;2023-08-20T06:27:03;45.55;;;30.88;;
19105;SDS011;9685;54.338;18.672;2023-08-20T06:29:30;40.33;;;28.63;;
19105;SDS011;9685;54.338;18.672;2023-08-20T06:31:57;38.55;;;29.05;;
19105;SDS011;9685;54.338;18.672;2023-08-20T06:34:24;34.13;;;26.40;;
19105;SDS011;9685;54.338;18.672;2023-08-20T06:36:52;35.80;;;26.15;;
19105;SDS011;9685;54.338;18.672;2023-08-20T06:39:20;28.65;;;25.05;;
19105;SDS011;9685;54.338;18.672;2023-08-20T06:41:47;33.53;;;26.50;;
19105;SDS011;9685;54.338;18.672;2023-08-20T06:44:14;37.70;;;27.30;;
19105;SDS011;9685;54.338;18.672;2023-08-20T06:46:41;36.83;;;27.63;;
19105;SDS011;9685;54.338;18.672;2023-08-20T06:49:08;40.40;;;26.67;;
19105;SDS011;9685;54.338;18.672;2023-08-20T06:51:35;33.05;;;25.30;;
19105;SDS011;9685;54.338;18.672;2023-08-20T06:54:02;32.45;;;25.52;;
19105;SDS011;9685;54.338;18.672;2023-08-20T06:56:32;34.00;;;25.20;;
19105;SDS011;9685;54.338;18.672;2023-08-20T06:58:59;39.72;;;25.05;;
19105;SDS011;9685;54.338;18.672;2023-08-20T07:01:28;36.13;;;25.33;;
19105;SDS011;9685;54.338;18.672;2023-08-20T07:03:55;30.30;;;25.35;;
19105;SDS011;9685;54.338;18.672;2023-08-20T07:06:22;33.28;;;24.67;;
19105;SDS011;9685;54.338;18.672;2023-08-20T07:08:49;23.17;;;20.63;;
19105;SDS011;9685;54.338;18.672;2023-08-20T07:11:16;25.10;;;22.42;;
19105;SDS011;9685;54.338;18.672;2023-08-20T07:13:44;31.80;;;25.08;;
19105;SDS011;9685;54.338;18.672;2023-08-20T07:16:10;27.05;;;22.13;;
19105;SDS011;9685;54.338;18.672;2023-08-20T07:18:37;28.13;;;21.48;;
19105;SDS011;9685;54.338;18.672;2023-08-20T07:21:04;24.08;;;20.02;;
19105;SDS011;9685;54.338;18.672;2023-08-20T07:23:32;25.85;;;19.38;;
19105;SDS011;9685;54.338;18.672;2023-08-20T07:26:06;26.15;;;19.67;;
19105;SDS011;9685;54.338;18.672;2023-08-20T07:28:35;19.90;;;17.90;;
19105;SDS011;9685;54.338;18.672;2023-08-20T07:31:21;20.35;;;17.65;;
19105;SDS011;9685;54.338;18.672;2023-08-20T07:33:48;23.23;;;18.25;;
19105;SDS011;9685;54.338;18.672;2023-08-20T07:36:16;17.65;;;15.73;;
19105;SDS011;9685;54.338;18.672;2023-08-20T07:38:43;17.42;;;15.75;;
19105;SDS011;9685;54.338;18.672;2023-08-20T07:41:10;17.52;;;15.73;;
19105;SDS011;9685;54.338;18.672;2023-08-20T07:43:37;17.70;;;15.80;;
19105;SDS011;9685;54.338;18.672;2023-08-20T07:46:05;15.82;;;14.18;;
19105;SDS011;9685;54.338;18.672;2023-08-20T07:48:34;17.02;;;15.23;;
19105;SDS011;9685;54.338;18.672;2023-08-20T07:51:01;17.92;;;15.75;;
19105;SDS011;9685;54.338;18.672;2023-08-20T07:53:29;18.92;;;15.48;;
19105;SDS011;9685;54.338;18.672;2023-08-20T07:55:56;22.42;;;16.48;;
19105;SDS011;9685;54.338;18.672;2023-08-20T07:58:23;20.40;;;15.18;;
19105;SDS011;9685;54.338;18.672;2023-08-20T08:00:50;19.13;;;15.25;;
19105;SDS011;9685;54.338;18.672;2023-08-20T08:03:17;17.70;;;14.52;;
19105;SDS011;9685;54.338;18.672;2023-08-20T08:05:47;18.42;;;15.00;;
19105;SDS011;9685;54.338;18.672;2023-08-20T08:08:14;19.55;;;15.13;;
19105;SDS011;9685;54.338;18.672;2023-08-20T08:10:41;17.92;;;15.48;;
19105;SDS011;9685;54.338;18.672;2023-08-20T08:13:10;17.15;;;14.93;;
19105;SDS011;9685;54.338;18.672;2023-08-20T08:15:37;20.30;;;15.65;;
19105;SDS011;9685;54.338;18.672;2023-08-20T08:18:04;15.32;;;13.68;;
19105;SDS011;9685;54.338;18.672;2023-08-20T08:20:31;15.02;;;13.57;;
19105;SDS011;9685;54.338;18.672;2023-08-20T08:23:00;18.17;;;12.70;;
19105;SDS011;9685;54.338;18.672;2023-08-20T08:25:28;14.32;;;12.90;;
19105;SDS011;9685;54.338;18.672;2023-08-20T08:27:55;14.45;;;12.77;;
19105;SDS011;9685;54.338;18.672;2023-08-20T08:30:22;16.60;;;12.50;;
19105;SDS011;9685;54.338;18.672;2023-08-20T08:32:49;14.65;;;11.55;;
19105;SDS011;9685;54.338;18.672;2023-08-20T08:35:16;15.90;;;12.00;;
19105;SDS011;9685;54.338;18.672;2023-08-20T08:37:44;16.30;;;11.32;;
19105;SDS011;9685;54.338;18.672;2023-08-20T08:40:12;13.98;;;12.13;;
19105;SDS011;9685;54.338;18.672;2023-08-20T08:42:40;15.30;;;12.50;;
19105;SDS011;9685;54.338;18.672;2023-08-20T08:45:08;14.45;;;11.52;;
19105;SDS011;9685;54.338;18.672;2023-08-20T08:47:36;14.95;;;11.52;;
19105;SDS011;9685;54.338;18.672;2023-08-20T08:50:06;14.15;;;11.57;;
19105;SDS011;9685;54.338;18.672;2023-08-20T08:52:35;12.20;;;11.10;;
19105;SDS011;9685;54.338;18.672;2023-08-20T08:55:03;13.75;;;11.00;;
19105;SDS011;9685;54.338;18.672;2023-08-20T08:57:34;12.02;;;10.32;;
19105;SDS011;9685;54.338;18.672;2023-08-20T09:00:01;14.15;;;10.68;;
19105;SDS011;9685;54.338;18.672;2023-08-20T09:02:29;12.00;;;10.70;;
19105;SDS011;9685;54.338;18.672;2023-08-20T09:04:56;14.52;;;11.20;;
19105;SDS011;9685;54.338;18.672;2023-08-20T09:07:24;16.48;;;11.68;;
19105;SDS011;9685;54.338;18.672;2023-08-20T09:09:56;13.05;;;10.88;;
19105;SDS011;9685;54.338;18.672;2023-08-20T09:12:24;13.82;;;10.48;;
19105;SDS011;9685;54.338;18.672;2023-08-20T09:14:53;13.00;;;11.32;;
19105;SDS011;9685;54.338;18.672;2023-08-20T09:17:24;15.05;;;10.70;;
19105;SDS011;9685;54.338;18.672;2023-08-20T09:19:53;17.45;;;11.32;;
19105;SDS011;9685;54.338;18.672;2023-08-20T09:22:21;12.40;;;10.93;;
19105;SDS011;9685;54.338;18.672;2023-08-20T09:24:52;11.50;;;10.27;;
19105;SDS011;9685;54.338;18.672;2023-08-20T09:27:20;11.60;;;9.80;;
19105;SDS011;9685;54.338;18.672;2023-08-20T09:29:47;13.90;;;9.73;;
19105;SDS011;9685;54.338;18.672;2023-08-20T09:32:23;13.02;;;9.02;;
19105;SDS011;9685;54.338;18.672;2023-08-20T09:34:51;10.60;;;9.55;;
19105;SDS011;9685;54.338;18.672;2023-08-20T09:37:20;11.18;;;9.57;;
19105;SDS011;9685;54.338;18.672;2023-08-20T09:39:48;10.85;;;9.38;;
19105;SDS011;9685;54.338;18.672;2023-08-20T09:42:15;10.65;;;8.95;;
19105;SDS011;9685;54.338;18.672;2023-08-20T09:44:43;12.57;;;8.77;;
19105;SDS011;9685;54.338;18.672;2023-08-20T09:47:12;9.82;;;8.57;;
19105;SDS011;9685;54.338;18.672;2023-08-20T09:49:41;11.77;;;9.05;;
19105;SDS011;9685;54.338;18.672;2023-08-20T09:52:09;10.30;;;9.13;;
19105;SDS011;9685;54.338;18.672;2023-08-20T09:57:32;12.23;;;8.65;;
19105;SDS011;9685;54.338;18.672;2023-08-20T10:00:00;13.70;;;8.70;;
19105;SDS011;9685;54.338;18.672;2023-08-20T10:02:30;9.77;;;8.63;;
19105;SDS011;9685;54.338;18.672;2023-08-20T10:05:00;10.70;;;8.57;;
19105;SDS011;9685;54.338;18.672;2023-08-20T10:07:28;9.88;;;8.88;;
19105;SDS011;9685;54.338;18.672;2023-08-20T10:09:57;11.27;;;8.82;;
19105;SDS011;9685;54.338;18.672;2023-08-20T10:12:26;9.82;;;8.90;;
19105;SDS011;9685;54.338;18.672;2023-08-20T10:14:53;11.45;;;9.73;;
19105;SDS011;9685;54.338;18.672;2023-08-20T10:17:21;10.27;;;9.15;;
19105;SDS011;9685;54.338;18.672;2023-08-20T10:19:48;13.18;;;9.68;;
19105;SDS011;9685;54.338;18.672;2023-08-20T10:22:18;11.05;;;9.35;;
19105;SDS011;9685;54.338;18.672;2023-08-20T10:24:48;14.05;;;9.68;;
19105;SDS011;9685;54.338;18.672;2023-08-20T10:27:23;11.48;;;9.45;;
19105;SDS011;9685;54.338;18.672;2023-08-20T10:29:52;19.67;;;9.68;;
19105;SDS011;9685;54.338;18.672;2023-08-20T10:32:19;17.92;;;9.35;;
19105;SDS011;9685;54.338;18.672;2023-08-20T10:34:49;12.55;;;8.88;;
19105;SDS011;9685;54.338;18.672;2023-08-20T10:37:26;11.18;;;8.90;;
19105;SDS011;9685;54.338;18.672;2023-08-20T10:39:54;11.57;;;8.25;;
19105;SDS011;9685;54.338;18.672;2023-08-20T10:42:25;10.98;;;8.30;;
19105;SDS011;9685;54.338;18.672;2023-08-20T10:44:59;11.68;;;8.77;;
19105;SDS011;9685;54.338;18.672;2023-08-20T10:47:41;12.18;;;8.93;;
19105;SDS011;9685;54.338;18.672;2023-08-20T10:50:09;10.85;;;8.80;;
19105;SDS011;9685;54.338;18.672;2023-08-20T10:52:41;11.63;;;8.93;;
19105;SDS011;9685;54.338;18.672;2023-08-20T10:55:14;11.48;;;10.18;;
19105;SDS011;9685;54.338;18.672;2023-08-20T10:57:41;12.45;;;9.43;;
19105;SDS011;9685;54.338;18.672;2023-08-20T11:00:08;10.57;;;9.50;;
19105;SDS011;9685;54.338;18.672;2023-08-20T11:02:41;10.90;;;9.45;;
19105;SDS011;9685;54.338;18.672;2023-08-20T11:05:15;11.70;;;9.18;;
19105;SDS011;9685;54.338;18.672;2023-08-20T11:07:46;10.07;;;9.05;;
19105;SDS011;9685;54.338;18.672;2023-08-20T11:10:14;10.95;;;9.73;;
19105;SDS011;9685;54.338;18.672;2023-08-20T11:12:41;10.40;;;9.35;;
19105;SDS011;9685;54.338;18.672;2023-08-20T11:15:09;10.95;;;9.50;;
19105;SDS011;9685;54.338;18.672;2023-08-20T11:17:40;13.45;;;11.20;;
19105;SDS011;9685;54.338;18.672;2023-08-20T11:20:09;11.05;;;9.90;;
19105;SDS011;9685;54.338;18.672;2023-08-20T11:22:38;12.93;;;10.57;;
19105;SDS011;9685;54.338;18.672;2023-08-20T11:25:09;13.13;;;10.85;;
19105;SDS011;9685;54.338;18.672;2023-08-20T11:27:39;18.23;;;11.95;;
19105;SDS011;9685;54.338;18.672;2023-08-20T11:30:07;16.40;;;11.68;;
19105;SDS011;9685;54.338;18.672;2023-08-20T11:32:36;15.98;;;12.68;;
19105;SDS011;9685;54.338;18.672;2023-08-20T11:35:04;16.23;;;11.25;;
19105;SDS011;9685;54.338;18.672;2023-08-20T11:37:32;12.20;;;10.63;;
19105;SDS011;9685;54.338;18.672;2023-08-20T11:39:59;12.65;;;11.45;;
19105;SDS011;9685;54.338;18.672;2023-08-20T11:42:27;12.75;;;11.00;;
19105;SDS011;9685;54.338;18.672;2023-08-20T11:44:55;14.65;;;13.15;;
19105;SDS011;9685;54.338;18.672;2023-08-20T11:47:22;20.58;;;13.07;;
19105;SDS011;9685;54.338;18.672;2023-08-20T11:50:01;18.80;;;12.45;;
19105;SDS011;9685;54.338;18.672;2023-08-20T11:52:30;15.15;;;13.50;;
19105;SDS011;9685;54.338;18.672;2023-08-20T11:54:58;19.02;;;13.32;;
19105;SDS011;9685;54.338;18.672;2023-08-20T11:57:27;16.02;;;14.32;;
19105;SDS011;9685;54.338;18.672;2023-08-20T11:59:55;21.15;;;15.32;;
19105;SDS011;9685;54.338;18.672;2023-08-20T12:02:29;19.92;;;16.42;;
19105;SDS011;9685;54.338;18.672;2023-08-20T12:04:56;16.90;;;14.98;;
19105;SDS011;9685;54.338;18.672;2023-08-20T12:07:25;13.98;;;11.77;;
19105;SDS011;9685;54.338;18.672;2023-08-20T12:09:52;15.20;;;11.70;;
19105;SDS011;9685;54.338;18.672;2023-08-20T12:12:20;13.70;;;12.18;;
19105;SDS011;9685;54.338;18.672;2023-08-20T12:14:48;14.18;;;12.65;;
19105;SDS011;9685;54.338;18.672;2023-08-20T12:17:16;14.80;;;13.27;;
19105;SDS011;9685;54.338;18.672;2023-08-20T12:19:43;15.05;;;12.90;;
19105;SDS011;9685;54.338;18.672;2023-08-20T12:22:11;17.30;;;12.73;;
19105;SDS011;9685;54.338;18.672;2023-08-20T12:24:38;13.23;;;11.73;;
19105;SDS011;9685;54.338;18.672;2023-08-20T12:27:05;11.43;;;10.38;;
19105;SDS011;9685;54.338;18.672;2023-08-20T12:29:32;10.77;;;9.88;;
19105;SDS011;9685;54.338;18.672;2023-08-20T12:32:01;11.55;;;10.50;;
19105;SDS011;9685;54.338;18.672;2023-08-20T12:34:29;10.50;;;9.50;;
19105;SDS011;9685;54.338;18.672;2023-08-20T12:36:56;11.65;;;10.05;;
19105;SDS011;9685;54.338;18.672;2023-08-20T12:39:23;12.98;;;11.68;;
19105;SDS011;9685;54.338;18.672;2023-08-20T12:41:50;12.57;;;10.73;;
19105;SDS011;9685;54.338;18.672;2023-08-20T12:44:17;13.88;;;10.75;;
19105;SDS011;9685;54.338;18.672;2023-08-20T12:46:44;14.68;;;10.95;;
19105;SDS011;9685;54.338;18.672;2023-08-20T12:49:13;16.70;;;10.90;;
19105;SDS011;9685;54.338;18.672;2023-08-20T12:51:39;10.45;;;9.45;;
19105;SDS011;9685;54.338;18.672;2023-08-20T12:54:06;11.27;;;9.80;;
19105;SDS011;9685;54.338;18.672;2023-08-20T12:56:33;13.43;;;9.27;;
19105;SDS011;9685;54.338;18.672;2023-08-20T12:59:00;9.40;;;8.10;;
19105;SDS011;9685;54.338;18.672;2023-08-20T13:01:28;11.25;;;8.98;;
19105;SDS011;9685;54.338;18.672;2023-08-20T13:03:55;11.65;;;8.50;;
19105;SDS011;9685;54.338;18.672;2023-08-20T13:06:24;16.10;;;9.43;;
19105;SDS011;9685;54.338;18.672;2023-08-20T13:08:51;9.65;;;8.45;;
19105;SDS011;9685;54.338;18.672;2023-08-20T13:11:19;9.05;;;8.20;;
19105;SDS011;9685;54.338;18.672;2023-08-20T13:13:48;9.65;;;8.68;;
19105;SDS011;9685;54.338;18.672;2023-08-20T13:16:15;8.43;;;7.72;;
19105;SDS011;9685;54.338;18.672;2023-08-20T13:18:44;10.48;;;8.45;;
19105;SDS011;9685;54.338;18.672;2023-08-20T13:21:12;8.70;;;7.85;;
19105;SDS011;9685;54.338;18.672;2023-08-20T13:23:40;10.30;;;8.50;;
19105;SDS011;9685;54.338;18.672;2023-08-20T13:26:07;10.27;;;7.55;;
19105;SDS011;9685;54.338;18.672;2023-08-20T13:28:34;11.68;;;7.72;;
19105;SDS011;9685;54.338;18.672;2023-08-20T13:31:01;9.68;;;7.38;;
19105;SDS011;9685;54.338;18.672;2023-08-20T13:33:28;11.00;;;7.22;;
19105;SDS011;9685;54.338;18.672;2023-08-20T13:35:55;7.55;;;6.80;;
19105;SDS011;9685;54.338;18.672;2023-08-20T13:38:22;9.95;;;6.93;;
19105;SDS011;9685;54.338;18.672;2023-08-20T13:40:51;8.48;;;7.28;;
19105;SDS011;9685;54.338;18.672;2023-08-20T13:43:18;7.63;;;6.70;;
19105;SDS011;9685;54.338;18.672;2023-08-20T13:45:45;9.77;;;7.10;;
19105;SDS011;9685;54.338;18.672;2023-08-20T13:48:12;11.65;;;7.13;;
19105;SDS011;9685;54.338;18.672;2023-08-20T13:50:39;10.05;;;7.43;;
19105;SDS011;9685;54.338;18.672;2023-08-20T13:53:06;10.43;;;7.05;;
19105;SDS011;9685;54.338;18.672;2023-08-20T13:55:34;9.02;;;7.00;;
19105;SDS011;9685;54.338;18.672;2023-08-20T13:58:03;10.75;;;6.90;;
19105;SDS011;9685;54.338;18.672;2023-08-20T14:00:30;7.47;;;6.32;;
19105;SDS011;9685;54.338;18.672;2023-08-20T14:02:57;8.93;;;6.50;;
19105;SDS011;9685;54.338;18.672;2023-08-20T14:05:24;11.63;;;6.53;;
19105;SDS011;9685;54.338;18.672;2023-08-20T14:07:51;12.50;;;6.50;;
19105;SDS011;9685;54.338;18.672;2023-08-20T14:10:18;10.88;;;6.38;;
19105;SDS011;9685;54.338;18.672;2023-08-20T14:12:45;6.43;;;5.82;;
19105;SDS011;9685;54.338;18.672;2023-08-20T14:15:13;7.25;;;5.97;;
19105;SDS011;9685;54.338;18.672;2023-08-20T14:17:40;7.38;;;5.20;;
19105;SDS011;9685;54.338;18.672;2023-08-20T14:20:08;6.70;;;5.60;;
19105;SDS011;9685;54.338;18.672;2023-08-20T14:22:36;6.68;;;5.53;;
19105;SDS011;9685;54.338;18.672;2023-08-20T14:25:03;7.45;;;5.60;;
19105;SDS011;9685;54.338;18.672;2023-08-20T14:27:31;6.10;;;5.60;;
19105;SDS011;9685;54.338;18.672;2023-08-20T14:29:58;6.00;;;5.47;;
19105;SDS011;9685;54.338;18.672;2023-08-20T14:32:26;7.50;;;5.55;;
19105;SDS011;9685;54.338;18.672;2023-08-20T14:34:53;12.50;;;5.90;;
19105;SDS011;9685;54.338;18.672;2023-08-20T14:37:20;9.60;;;5.57;;